createdAt,value
2023-04-07T00:00:44.314Z,1016.45
2023-04-07T00:01:44.730Z,1016.44
2023-04-07T00:02:45.113Z,1016.38
2023-04-07T00:03:45.532Z,1016.40
2023-04-07T00:04:45.753Z,1016.36
2023-04-07T00:05:46.078Z,1016.38
2023-04-07T00:06:46.426Z,1016.42
2023-04-07T00:07:55.738Z,1016.45
2023-04-07T00:08:47.107Z,1016.45
2023-04-07T00:09:47.461Z,1016.45
2023-04-07T00:10:47.923Z,1016.44
2023-04-07T00:11:48.203Z,1016.44
2023-04-07T00:12:48.518Z,1016.48
2023-04-07T00:13:48.869Z,1016.50
2023-04-07T00:14:49.209Z,1016.49
2023-04-07T00:15:49.604Z,1016.47
2023-04-07T00:16:49.921Z,1016.50
2023-04-07T00:17:50.332Z,1016.45
2023-04-07T00:18:50.596Z,1016.45
2023-04-07T00:19:50.944Z,1016.40
2023-04-07T00:20:51.327Z,1016.43
2023-04-07T00:21:51.664Z,1016.44
2023-04-07T00:22:51.993Z,1016.42
2023-04-07T00:23:52.518Z,1016.38
2023-04-07T00:24:52.723Z,1016.39
2023-04-07T00:25:53.011Z,1016.36
2023-04-07T00:26:53.355Z,1016.37
2023-04-07T00:27:53.710Z,1016.35
2023-04-07T00:28:54.068Z,1016.31
2023-04-07T00:29:54.409Z,1016.35
2023-04-07T00:30:54.780Z,1016.36
2023-04-07T00:31:55.103Z,1016.40
2023-04-07T00:32:55.567Z,1016.41
2023-04-07T00:33:56.174Z,1016.46
2023-04-07T00:34:56.173Z,1016.45
2023-04-07T00:35:56.509Z,1016.41
2023-04-07T00:36:56.854Z,1016.44
2023-04-07T00:37:57.217Z,1016.45
2023-04-07T00:38:57.628Z,1016.45
2023-04-07T00:39:58.010Z,1016.38
2023-04-07T00:40:58.302Z,1016.41
2023-04-07T00:41:58.564Z,1016.46
2023-04-07T00:42:58.917Z,1016.46
2023-04-07T00:43:59.276Z,1016.46
2023-04-07T00:44:59.621Z,1016.48
2023-04-07T00:45:59.974Z,1016.44
2023-04-07T00:47:00.315Z,1016.44
2023-04-07T00:48:00.704Z,1016.48
2023-04-07T00:49:01.012Z,1016.43
2023-04-07T00:50:01.360Z,1016.44
2023-04-07T00:51:01.821Z,1016.43
2023-04-07T00:52:02.054Z,1016.44
2023-04-07T00:53:02.429Z,1016.44
2023-04-07T00:54:02.763Z,1016.47
2023-04-07T00:55:03.102Z,1016.41
2023-04-07T00:56:03.503Z,1016.41
2023-04-07T00:57:03.817Z,1016.42
2023-04-07T00:58:04.174Z,1016.43
2023-04-07T00:59:04.569Z,1016.44
2023-04-07T01:00:04.928Z,1016.45
2023-04-07T01:01:05.176Z,1016.44
2023-04-07T01:02:05.636Z,1016.44
2023-04-07T01:03:06.053Z,1016.46
2023-04-07T01:04:06.311Z,1016.46
2023-04-07T01:05:06.685Z,1016.48
2023-04-07T01:06:06.926Z,1016.48
2023-04-07T01:07:07.297Z,1016.42
2023-04-07T01:08:07.652Z,1016.45
2023-04-07T01:09:08.032Z,1016.41
2023-04-07T01:10:08.389Z,1016.43
2023-04-07T01:11:08.734Z,1016.43
2023-04-07T01:12:09.027Z,1016.35
2023-04-07T01:13:09.453Z,1016.41
2023-04-07T01:14:09.754Z,1016.39
2023-04-07T01:15:10.080Z,1016.45
2023-04-07T01:16:10.474Z,1016.39
2023-04-07T01:17:10.776Z,1016.45
2023-04-07T01:18:11.161Z,1016.44
2023-04-07T01:19:11.475Z,1016.45
2023-04-07T01:20:11.838Z,1016.44
2023-04-07T01:21:12.142Z,1016.43
2023-04-07T01:22:12.489Z,1016.36
2023-04-07T01:23:12.852Z,1016.39
2023-04-07T01:24:13.222Z,1016.44
2023-04-07T01:25:13.525Z,1016.38
2023-04-07T01:26:13.860Z,1016.40
2023-04-07T01:27:14.225Z,1016.41
2023-04-07T01:28:14.611Z,1016.42
2023-04-07T01:29:14.937Z,1016.43
2023-04-07T01:30:15.311Z,1016.42
2023-04-07T01:31:15.676Z,1016.44
2023-04-07T01:32:16.002Z,1016.44
2023-04-07T01:33:16.343Z,1016.37
2023-04-07T01:34:16.687Z,1016.41
2023-04-07T01:35:17.024Z,1016.36
2023-04-07T01:36:17.362Z,1016.36
2023-04-07T01:37:17.860Z,1016.35
2023-04-07T01:38:18.105Z,1016.40
2023-04-07T01:39:18.400Z,1016.39
2023-04-07T01:40:18.887Z,1016.38
2023-04-07T01:41:19.080Z,1016.42
2023-04-07T01:42:19.432Z,1016.40
2023-04-07T01:43:19.841Z,1016.40
2023-04-07T01:44:20.245Z,1016.38
2023-04-07T01:45:20.624Z,1016.39
2023-04-07T01:46:20.819Z,1016.39
2023-04-07T01:47:21.216Z,1016.38
2023-04-07T01:48:21.548Z,1016.39
2023-04-07T01:49:21.886Z,1016.49
2023-04-07T01:50:22.235Z,1016.49
2023-04-07T01:51:22.609Z,1016.54
2023-04-07T01:52:22.984Z,1016.50
2023-04-07T01:53:23.313Z,1016.49
2023-04-07T01:54:23.637Z,1016.54
2023-04-07T01:55:23.972Z,1016.47
2023-04-07T01:56:24.317Z,1016.48
2023-04-07T01:57:24.660Z,1016.46
2023-04-07T01:58:25.074Z,1016.44
2023-04-07T01:59:25.338Z,1016.46
2023-04-07T02:00:25.708Z,1016.48
2023-04-07T02:01:26.073Z,1016.48
2023-04-07T02:02:26.442Z,1016.47
2023-04-07T02:03:26.866Z,1016.49
2023-04-07T02:04:27.045Z,1016.52
2023-04-07T02:05:27.422Z,1016.51
2023-04-07T02:06:27.761Z,1016.52
2023-04-07T02:07:28.094Z,1016.53
2023-04-07T02:08:30.052Z,1016.52
2023-04-07T02:09:28.802Z,1016.56
2023-04-07T02:10:29.147Z,1016.55
2023-04-07T02:11:29.493Z,1016.56
2023-04-07T02:12:29.861Z,1016.58
2023-04-07T02:13:30.301Z,1016.57
2023-04-07T02:14:30.564Z,1016.59
2023-04-07T02:15:30.935Z,1016.52
2023-04-07T02:16:31.317Z,1016.51
2023-04-07T02:17:31.634Z,1016.53
2023-04-07T02:18:31.988Z,1016.56
2023-04-07T02:19:32.330Z,1016.54
2023-04-07T02:20:32.667Z,1016.51
2023-04-07T02:21:33.007Z,1016.50
2023-04-07T02:22:33.383Z,1016.51
2023-04-07T02:23:33.692Z,1016.52
2023-04-07T02:24:34.036Z,1016.50
2023-04-07T02:25:34.385Z,1016.53
2023-04-07T02:26:35.479Z,1016.50
2023-04-07T02:27:35.052Z,1016.52
2023-04-07T02:28:35.416Z,1016.53
2023-04-07T02:29:35.743Z,1016.54
2023-04-07T02:30:36.106Z,1016.56
2023-04-07T02:31:36.471Z,1016.53
2023-04-07T02:32:36.815Z,1016.51
2023-04-07T02:33:37.154Z,1016.52
2023-04-07T02:34:37.497Z,1016.54
2023-04-07T02:35:37.846Z,1016.54
2023-04-07T02:36:38.203Z,1016.57
2023-04-07T02:37:38.532Z,1016.60
2023-04-07T02:38:38.891Z,1016.57
2023-04-07T02:39:39.240Z,1016.59
2023-04-07T02:40:39.598Z,1016.60
2023-04-07T02:41:39.934Z,1016.62
2023-04-07T02:42:40.283Z,1016.60
2023-04-07T02:43:40.650Z,1016.66
2023-04-07T02:44:40.990Z,1016.66
2023-04-07T02:45:41.339Z,1016.65
2023-04-07T02:46:41.693Z,1016.67
2023-04-07T02:47:42.066Z,1016.68
2023-04-07T02:48:42.400Z,1016.69
2023-04-07T02:49:42.762Z,1016.69
2023-04-07T02:50:43.156Z,1016.71
2023-04-07T02:51:43.455Z,1016.75
2023-04-07T02:52:43.803Z,1016.72
2023-04-07T02:53:44.161Z,1016.77
2023-04-07T02:54:44.509Z,1016.77
2023-04-07T02:55:44.850Z,1016.78
2023-04-07T02:56:45.193Z,1016.71
2023-04-07T02:57:45.538Z,1016.75
2023-04-07T02:58:45.900Z,1016.83
2023-04-07T02:59:46.243Z,1016.76
2023-04-07T03:00:46.880Z,1016.80
2023-04-07T03:01:46.990Z,1016.82
2023-04-07T03:02:47.594Z,1016.72
2023-04-07T03:03:47.864Z,1016.83
2023-04-07T03:04:48.001Z,1016.79
2023-04-07T03:05:48.347Z,1016.77
2023-04-07T03:06:48.692Z,1016.79
2023-04-07T03:07:49.037Z,1016.81
2023-04-07T03:08:49.391Z,1016.81
2023-04-07T03:09:49.747Z,1016.77
2023-04-07T03:10:50.074Z,1016.78
2023-04-07T03:11:50.423Z,1016.80
2023-04-07T03:12:50.763Z,1016.76
2023-04-07T03:13:51.306Z,1016.83
2023-04-07T03:14:51.447Z,1016.78
2023-04-07T03:15:51.767Z,1016.82
2023-04-07T03:16:52.208Z,1016.80
2023-04-07T03:17:52.527Z,1016.84
2023-04-07T03:18:52.872Z,1016.84
2023-04-07T03:19:53.172Z,1016.86
2023-04-07T03:20:53.525Z,1016.84
2023-04-07T03:21:53.848Z,1016.86
2023-04-07T03:22:54.193Z,1016.86
2023-04-07T03:23:54.644Z,1016.83
2023-04-07T03:24:54.898Z,1016.86
2023-04-07T03:25:55.249Z,1016.87
2023-04-07T03:26:55.586Z,1016.88
2023-04-07T03:27:55.925Z,1016.85
2023-04-07T03:28:56.305Z,1016.90
2023-04-07T03:29:56.600Z,1016.82
2023-04-07T03:30:56.992Z,1016.86
2023-04-07T03:31:57.277Z,1016.82
2023-04-07T03:32:57.709Z,1016.86
2023-04-07T03:33:58.027Z,1016.83
2023-04-07T03:34:58.327Z,1016.79
2023-04-07T03:35:58.712Z,1016.81
2023-04-07T03:36:59.025Z,1016.87
2023-04-07T03:37:59.374Z,1016.82
2023-04-07T03:38:59.723Z,1016.86
2023-04-07T03:40:00.121Z,1016.82
2023-04-07T03:41:00.437Z,1016.81
2023-04-07T03:42:00.810Z,1016.88
2023-04-07T03:43:01.147Z,1016.84
2023-04-07T03:44:01.535Z,1016.82
2023-04-07T03:45:01.856Z,1016.84
2023-04-07T03:46:02.230Z,1016.83
2023-04-07T03:47:02.560Z,1016.82
2023-04-07T03:48:02.915Z,1016.77
2023-04-07T03:49:03.249Z,1016.81
2023-04-07T03:50:03.601Z,1016.89
2023-04-07T03:51:03.952Z,1016.84
2023-04-07T03:52:04.304Z,1016.89
2023-04-07T03:53:04.657Z,1016.89
2023-04-07T03:54:05.003Z,1016.91
2023-04-07T03:55:05.339Z,1016.91
2023-04-07T03:56:05.714Z,1016.92
2023-04-07T03:57:06.039Z,1016.92
2023-04-07T03:58:06.379Z,1016.96
2023-04-07T03:59:06.737Z,1016.92
2023-04-07T04:00:07.086Z,1016.96
2023-04-07T04:01:07.459Z,1016.93
2023-04-07T04:02:07.980Z,1016.95
2023-04-07T04:03:08.227Z,1016.92
2023-04-07T04:04:08.684Z,1016.98
2023-04-07T04:05:08.851Z,1016.97
2023-04-07T04:06:09.216Z,1016.97
2023-04-07T04:07:09.592Z,1016.99
2023-04-07T04:08:09.948Z,1017.02
2023-04-07T04:09:10.204Z,1016.99
2023-04-07T04:10:10.489Z,1016.99
2023-04-07T04:11:10.766Z,1016.98
2023-04-07T04:12:11.069Z,1017.02
2023-04-07T04:13:11.348Z,1017.07
2023-04-07T04:14:11.653Z,1017.09
2023-04-07T04:15:11.931Z,1017.09
2023-04-07T04:16:14.977Z,1017.14
2023-04-07T04:17:12.525Z,1017.14
2023-04-07T04:18:12.825Z,1017.12
2023-04-07T04:19:13.137Z,1017.09
2023-04-07T04:20:13.394Z,1017.10
2023-04-07T04:21:13.719Z,1017.11
2023-04-07T04:22:13.980Z,1017.12
2023-04-07T04:23:14.163Z,1017.12
2023-04-07T04:24:14.329Z,1017.16
2023-04-07T04:25:14.605Z,1017.20
2023-04-07T04:26:14.876Z,1017.18
2023-04-07T04:27:15.185Z,1017.22
2023-04-07T04:28:15.436Z,1017.21
2023-04-07T04:29:15.742Z,1017.19
2023-04-07T04:30:16.020Z,1017.14
2023-04-07T04:31:16.208Z,1017.19
2023-04-07T04:32:16.388Z,1017.21
2023-04-07T04:33:16.523Z,1017.24
2023-04-07T04:34:16.693Z,1017.23
2023-04-07T04:35:16.972Z,1017.24
2023-04-07T04:36:17.154Z,1017.23
2023-04-07T04:37:17.315Z,1017.28
2023-04-07T04:38:17.606Z,1017.27
2023-04-07T04:39:17.906Z,1017.30
2023-04-07T04:40:18.062Z,1017.27
2023-04-07T04:41:18.226Z,1017.31
2023-04-07T04:42:18.388Z,1017.24
2023-04-07T04:43:18.692Z,1017.26
2023-04-07T04:44:19.001Z,1017.27
2023-04-07T04:45:19.260Z,1017.26
2023-04-07T04:46:19.551Z,1017.31
2023-04-07T04:47:19.869Z,1017.32
2023-04-07T04:48:20.034Z,1017.37
2023-04-07T04:49:20.218Z,1017.36
2023-04-07T04:50:20.380Z,1017.41
2023-04-07T04:51:20.556Z,1017.43
2023-04-07T04:52:20.725Z,1017.39
2023-04-07T04:53:20.910Z,1017.38
2023-04-07T04:54:21.089Z,1017.48
2023-04-07T04:55:21.254Z,1017.46
2023-04-07T04:56:21.419Z,1017.45
2023-04-07T04:57:21.601Z,1017.47
2023-04-07T04:58:21.780Z,1017.51
2023-04-07T04:59:21.957Z,1017.49
2023-04-07T05:00:22.271Z,1017.50
2023-04-07T05:01:22.428Z,1017.49
2023-04-07T05:02:22.694Z,1017.45
2023-04-07T05:03:22.934Z,1017.48
2023-04-07T05:04:23.094Z,1017.49
2023-04-07T05:05:23.083Z,1017.51
2023-04-07T05:06:23.403Z,1017.48
2023-04-07T05:07:23.555Z,1017.56
2023-04-07T05:08:23.733Z,1017.55
2023-04-07T05:09:23.903Z,1017.47
2023-04-07T05:10:24.064Z,1017.50
2023-04-07T05:11:24.275Z,1017.57
2023-04-07T05:12:24.525Z,1017.54
2023-04-07T05:13:24.821Z,1017.55
2023-04-07T05:14:25.008Z,1017.55
2023-04-07T05:15:25.186Z,1017.55
2023-04-07T05:16:25.398Z,1017.58
2023-04-07T05:17:25.706Z,1017.63
2023-04-07T05:18:25.838Z,1017.66
2023-04-07T05:19:26.075Z,1017.65
2023-04-07T05:20:26.192Z,1017.67
2023-04-07T05:21:26.408Z,1017.71
2023-04-07T05:22:26.581Z,1017.69
2023-04-07T05:23:26.737Z,1017.70
2023-04-07T05:24:26.943Z,1017.74
2023-04-07T05:25:27.099Z,1017.77
2023-04-07T05:26:27.294Z,1017.78
2023-04-07T05:27:27.588Z,1017.78
2023-04-07T05:28:27.761Z,1017.76
2023-04-07T05:29:27.949Z,1017.74
2023-04-07T05:30:28.223Z,1017.73
2023-04-07T05:31:28.444Z,1017.77
2023-04-07T05:32:28.670Z,1017.79
2023-04-07T05:33:28.892Z,1017.83
2023-04-07T05:34:29.080Z,1017.85
2023-04-07T05:35:29.255Z,1017.94
2023-04-07T05:36:29.441Z,1017.85
2023-04-07T05:37:29.746Z,1017.91
2023-04-07T05:38:30.036Z,1017.89
2023-04-07T05:39:30.338Z,1017.92
2023-04-07T05:40:30.525Z,1017.87
2023-04-07T05:41:30.681Z,1017.85
2023-04-07T05:42:30.976Z,1017.88
2023-04-07T05:43:31.291Z,1017.91
2023-04-07T05:44:31.472Z,1017.92
2023-04-07T05:45:31.682Z,1017.92
2023-04-07T05:46:31.813Z,1017.90
2023-04-07T05:47:32.160Z,1017.89
2023-04-07T05:48:32.302Z,1017.92
2023-04-07T05:49:32.615Z,1017.91
2023-04-07T05:50:32.793Z,1017.88
2023-04-07T05:51:32.962Z,1017.93
2023-04-07T05:52:33.262Z,1017.92
2023-04-07T05:53:33.561Z,1018.02
2023-04-07T05:54:33.873Z,1017.97
2023-04-07T05:55:34.032Z,1018.01
2023-04-07T05:56:34.323Z,1017.99
2023-04-07T05:57:34.520Z,1018.03
2023-04-07T05:58:34.833Z,1018.04
2023-04-07T05:59:35.134Z,1017.99
2023-04-07T06:00:35.304Z,1018.06
2023-04-07T06:01:35.646Z,1018.10
2023-04-07T06:02:35.917Z,1018.07
2023-04-07T06:03:36.232Z,1018.11
2023-04-07T06:04:36.411Z,1018.10
2023-04-07T06:05:36.664Z,1018.03
2023-04-07T06:06:36.872Z,1018.03
2023-04-07T06:07:37.046Z,1018.04
2023-04-07T06:08:37.342Z,1018.07
2023-04-07T06:09:37.714Z,1018.12
2023-04-07T06:10:37.830Z,1018.06
2023-04-07T06:11:38.134Z,1018.09
2023-04-07T06:12:38.306Z,1018.14
2023-04-07T06:13:38.618Z,1018.08
2023-04-07T06:14:38.814Z,1018.08
2023-04-07T06:15:38.980Z,1018.11
2023-04-07T06:16:39.173Z,1018.17
2023-04-07T06:17:39.486Z,1018.17
2023-04-07T06:18:39.622Z,1018.20
2023-04-07T06:19:39.972Z,1018.23
2023-04-07T06:20:40.222Z,1018.18
2023-04-07T06:21:40.516Z,1018.19
2023-04-07T06:22:40.808Z,1018.17
2023-04-07T06:23:41.013Z,1018.16
2023-04-07T06:24:41.198Z,1018.24
2023-04-07T06:25:41.401Z,1018.20
2023-04-07T06:26:41.555Z,1018.19
2023-04-07T06:27:41.849Z,1018.25
2023-04-07T06:28:42.049Z,1018.30
2023-04-07T06:29:42.255Z,1018.28
2023-04-07T06:30:42.434Z,1018.25
2023-04-07T06:31:42.703Z,1018.29
2023-04-07T06:32:42.946Z,1018.34
2023-04-07T06:33:43.071Z,1018.32
2023-04-07T06:34:43.411Z,1018.34
2023-04-07T06:35:43.668Z,1018.31
2023-04-07T06:36:43.994Z,1018.34
2023-04-07T06:37:44.154Z,1018.33
2023-04-07T06:38:44.462Z,1018.34
2023-04-07T06:39:44.748Z,1018.39
2023-04-07T06:40:45.039Z,1018.35
2023-04-07T06:41:45.210Z,1018.39
2023-04-07T06:42:45.406Z,1018.36
2023-04-07T06:43:45.966Z,1018.43
2023-04-07T06:44:45.907Z,1018.39
2023-04-07T06:45:46.098Z,1018.43
2023-04-07T06:46:46.377Z,1018.44
2023-04-07T06:47:46.611Z,1018.44
2023-04-07T06:48:46.861Z,1018.42
2023-04-07T06:49:47.184Z,1018.46
2023-04-07T06:50:47.376Z,1018.43
2023-04-07T06:51:47.547Z,1018.47
2023-04-07T06:52:47.850Z,1018.44
2023-04-07T06:53:48.215Z,1018.40
2023-04-07T06:54:48.212Z,1018.48
2023-04-07T06:55:48.395Z,1018.49
2023-04-07T06:56:48.548Z,1018.50
2023-04-07T06:57:48.865Z,1018.47
2023-04-07T06:58:49.065Z,1018.54
2023-04-07T06:59:49.363Z,1018.50
2023-04-07T07:00:49.633Z,1018.52
2023-04-07T07:01:50.156Z,1018.50
2023-04-07T07:02:50.316Z,1018.55
2023-04-07T07:03:50.627Z,1018.54
2023-04-07T07:04:50.624Z,1018.53
2023-04-07T07:05:50.895Z,1018.55
2023-04-07T07:06:51.196Z,1018.54
2023-04-07T07:07:51.496Z,1018.56
2023-04-07T07:08:51.699Z,1018.57
2023-04-07T07:09:51.879Z,1018.57
2023-04-07T07:10:52.045Z,1018.58
2023-04-07T07:11:52.343Z,1018.60
2023-04-07T07:12:52.546Z,1018.60
2023-04-07T07:13:52.707Z,1018.61
2023-04-07T07:14:53.018Z,1018.60
2023-04-07T07:15:53.198Z,1018.60
2023-04-07T07:16:53.480Z,1018.59
2023-04-07T07:17:53.672Z,1018.59
2023-04-07T07:18:53.846Z,1018.64
2023-04-07T07:19:54.175Z,1018.60
2023-04-07T07:20:54.464Z,1018.60
2023-04-07T07:21:54.738Z,1018.61
2023-04-07T07:22:55.105Z,1018.62
2023-04-07T07:23:55.345Z,1018.60
2023-04-07T07:24:55.539Z,1018.72
2023-04-07T07:25:55.704Z,1018.66
2023-04-07T07:26:55.999Z,1018.67
2023-04-07T07:27:56.294Z,1018.66
2023-04-07T07:28:56.772Z,1018.73
2023-04-07T07:29:56.778Z,1018.75
2023-04-07T07:30:56.964Z,1018.69
2023-04-07T07:31:57.118Z,1018.66
2023-04-07T07:32:57.355Z,1018.68
2023-04-07T07:33:57.603Z,1018.73
2023-04-07T07:34:57.800Z,1018.74
2023-04-07T07:35:57.987Z,1018.74
2023-04-07T07:36:58.133Z,1018.75
2023-04-07T07:37:58.292Z,1018.76
2023-04-07T07:38:58.603Z,1018.82
2023-04-07T07:39:58.782Z,1018.79
2023-04-07T07:40:58.951Z,1018.84
2023-04-07T07:41:59.145Z,1018.84
2023-04-07T07:42:59.436Z,1018.88
2023-04-07T07:43:59.731Z,1018.84
2023-04-07T07:45:00.057Z,1018.88
2023-04-07T07:46:00.378Z,1018.83
2023-04-07T07:47:00.561Z,1018.87
2023-04-07T07:48:00.747Z,1018.85
2023-04-07T07:49:00.870Z,1018.80
2023-04-07T07:50:01.059Z,1018.86
2023-04-07T07:51:01.219Z,1018.89
2023-04-07T07:52:01.521Z,1018.90
2023-04-07T07:53:01.810Z,1018.94
2023-04-07T07:54:01.997Z,1018.96
2023-04-07T07:55:02.265Z,1018.99
2023-04-07T07:56:02.508Z,1019.00
2023-04-07T07:57:02.682Z,1019.01
2023-04-07T07:58:02.858Z,1018.95
2023-04-07T07:59:03.157Z,1018.97
2023-04-07T08:00:03.482Z,1019.06
2023-04-07T08:01:03.744Z,1019.06
2023-04-07T08:02:04.077Z,1019.05
2023-04-07T08:03:04.268Z,1019.04
2023-04-07T08:04:04.662Z,1019.07
2023-04-07T08:05:04.769Z,1019.10
2023-04-07T08:06:05.039Z,1019.06
2023-04-07T08:07:05.216Z,1019.12
2023-04-07T08:08:05.385Z,1019.09
2023-04-07T08:09:05.676Z,1019.09
2023-04-07T08:10:05.998Z,1019.07
2023-04-07T08:11:06.152Z,1019.12
2023-04-07T08:12:06.452Z,1019.11
2023-04-07T08:13:06.634Z,1019.12
2023-04-07T08:14:08.624Z,1019.13
2023-04-07T08:15:07.262Z,1019.14
2023-04-07T08:16:07.342Z,1019.09
2023-04-07T08:17:07.599Z,1019.12
2023-04-07T08:18:07.802Z,1019.15
2023-04-07T08:19:08.091Z,1019.16
2023-04-07T08:20:08.262Z,1019.12
2023-04-07T08:21:08.419Z,1019.09
2023-04-07T08:22:08.725Z,1019.11
2023-04-07T08:23:08.923Z,1019.06
2023-04-07T08:24:09.079Z,1019.09
2023-04-07T08:25:09.401Z,1019.07
2023-04-07T08:26:09.584Z,1019.13
2023-04-07T08:27:09.854Z,1019.09
2023-04-07T08:28:10.084Z,1019.10
2023-04-07T08:29:10.346Z,1019.09
2023-04-07T08:30:10.660Z,1019.14
2023-04-07T08:31:10.994Z,1019.16
2023-04-07T08:32:11.125Z,1019.14
2023-04-07T08:33:11.450Z,1019.09
2023-04-07T08:34:11.624Z,1019.11
2023-04-07T08:35:11.817Z,1019.12
2023-04-07T08:36:12.018Z,1019.14
2023-04-07T08:37:12.170Z,1019.18
2023-04-07T08:38:12.391Z,1019.19
2023-04-07T08:39:12.663Z,1019.19
2023-04-07T08:40:12.975Z,1019.17
2023-04-07T08:41:13.154Z,1019.18
2023-04-07T08:42:13.357Z,1019.13
2023-04-07T08:43:13.524Z,1019.16
2023-04-07T08:44:13.713Z,1019.17
2023-04-07T08:45:13.895Z,1019.20
2023-04-07T08:46:14.068Z,1019.20
2023-04-07T08:47:14.374Z,1019.19
2023-04-07T08:48:14.570Z,1019.18
2023-04-07T08:49:14.747Z,1019.23
2023-04-07T08:50:14.963Z,1019.22
2023-04-07T08:51:15.117Z,1019.21
2023-04-07T08:52:15.271Z,1019.27
2023-04-07T08:53:15.465Z,1019.21
2023-04-07T08:54:15.665Z,1019.20
2023-04-07T08:55:15.865Z,1019.25
2023-04-07T08:56:16.041Z,1019.23
2023-04-07T08:57:16.328Z,1019.31
2023-04-07T08:58:16.538Z,1019.27
2023-04-07T08:59:16.831Z,1019.17
2023-04-07T09:00:17.036Z,1019.24
2023-04-07T09:01:17.403Z,1019.22
2023-04-07T09:02:17.558Z,1019.29
2023-04-07T09:03:17.749Z,1019.26
2023-04-07T09:04:18.010Z,1019.23
2023-04-07T09:05:18.067Z,1019.30
2023-04-07T09:06:18.240Z,1019.28
2023-04-07T09:07:18.541Z,1019.29
2023-04-07T09:08:18.708Z,1019.23
2023-04-07T09:09:19.042Z,1019.20
2023-04-07T09:10:19.328Z,1019.17
2023-04-07T09:11:19.485Z,1019.22
2023-04-07T09:12:19.651Z,1019.22
2023-04-07T09:13:19.834Z,1019.22
2023-04-07T09:14:19.995Z,1019.24
2023-04-07T09:15:20.200Z,1019.25
2023-04-07T09:16:20.395Z,1019.24
2023-04-07T09:17:20.534Z,1019.22
2023-04-07T09:18:20.727Z,1019.18
2023-04-07T09:19:20.909Z,1019.19
2023-04-07T09:20:21.130Z,1019.18
2023-04-07T09:21:21.256Z,1019.24
2023-04-07T09:22:21.449Z,1019.23
2023-04-07T09:23:21.684Z,1019.24
2023-04-07T09:24:21.807Z,1019.15
2023-04-07T09:25:22.009Z,1019.15
2023-04-07T09:26:22.176Z,1019.12
2023-04-07T09:27:22.369Z,1019.22
2023-04-07T09:28:22.534Z,1019.15
2023-04-07T09:29:22.740Z,1019.20
2023-04-07T09:30:22.961Z,1019.19
2023-04-07T09:31:23.136Z,1019.16
2023-04-07T09:32:23.256Z,1019.14
2023-04-07T09:33:23.425Z,1019.16
2023-04-07T09:34:23.623Z,1019.14
2023-04-07T09:35:23.843Z,1019.14
2023-04-07T09:36:23.981Z,1019.17
2023-04-07T09:37:24.159Z,1019.21
2023-04-07T09:38:24.335Z,1019.14
2023-04-07T09:39:24.525Z,1019.14
2023-04-07T09:40:24.730Z,1019.17
2023-04-07T09:41:24.969Z,1019.14
2023-04-07T09:42:25.048Z,1019.11
2023-04-07T09:43:25.243Z,1019.10
2023-04-07T09:44:25.431Z,1019.16
2023-04-07T09:45:33.957Z,1019.15
2023-04-07T09:46:26.261Z,1019.15
2023-04-07T09:47:25.990Z,1019.17
2023-04-07T09:48:26.147Z,1019.13
2023-04-07T09:49:26.334Z,1019.05
2023-04-07T09:50:26.542Z,1019.08
2023-04-07T09:51:26.697Z,1019.12
2023-04-07T09:52:26.887Z,1019.14
2023-04-07T09:53:27.057Z,1019.17
2023-04-07T09:54:27.246Z,1019.16
2023-04-07T09:55:27.460Z,1019.12
2023-04-07T09:56:27.613Z,1019.20
2023-04-07T09:57:27.822Z,1019.15
2023-04-07T09:58:28.026Z,1019.21
2023-04-07T09:59:28.215Z,1019.14
2023-04-07T10:00:28.420Z,1019.14
2023-04-07T10:01:28.722Z,1019.16
2023-04-07T10:02:28.908Z,1019.10
2023-04-07T10:03:29.059Z,1019.13
2023-04-07T10:04:29.241Z,1019.10
2023-04-07T10:05:29.398Z,1019.14
2023-04-07T10:06:29.578Z,1019.13
2023-04-07T10:07:29.782Z,1019.18
2023-04-07T10:08:30.000Z,1019.19
2023-04-07T10:09:30.229Z,1019.18
2023-04-07T10:10:30.452Z,1019.16
2023-04-07T10:11:30.633Z,1019.24
2023-04-07T10:12:30.840Z,1019.22
2023-04-07T10:13:31.078Z,1019.18
2023-04-07T10:14:31.268Z,1019.22
2023-04-07T10:15:31.490Z,1019.27
2023-04-07T10:16:31.679Z,1019.23
2023-04-07T10:17:31.885Z,1019.24
2023-04-07T10:18:32.036Z,1019.29
2023-04-07T10:19:32.243Z,1019.29
2023-04-07T10:20:32.492Z,1019.28
2023-04-07T10:21:32.996Z,1019.23
2023-04-07T10:22:32.852Z,1019.22
2023-04-07T10:23:33.064Z,1019.21
2023-04-07T10:24:33.322Z,1019.27
2023-04-07T10:25:33.511Z,1019.25
2023-04-07T10:26:33.686Z,1019.27
2023-04-07T10:27:33.891Z,1019.21
2023-04-07T10:28:34.126Z,1019.26
2023-04-07T10:29:34.291Z,1019.22
2023-04-07T10:30:34.540Z,1019.21
2023-04-07T10:31:34.784Z,1019.22
2023-04-07T10:32:34.926Z,1019.26
2023-04-07T10:33:35.119Z,1019.23
2023-04-07T10:34:35.332Z,1019.25
2023-04-07T10:35:35.626Z,1019.29
2023-04-07T10:36:35.757Z,1019.25
2023-04-07T10:37:35.962Z,1019.23
2023-04-07T10:38:36.168Z,1019.25
2023-04-07T10:39:36.330Z,1019.24
2023-04-07T10:40:36.569Z,1019.23
2023-04-07T10:41:36.880Z,1019.26
2023-04-07T10:42:36.948Z,1019.29
2023-04-07T10:43:37.149Z,1019.25
2023-04-07T10:44:37.327Z,1019.24
2023-04-07T10:45:37.558Z,1019.27
2023-04-07T10:46:37.909Z,1019.40
2023-04-07T10:47:38.005Z,1019.39
2023-04-07T10:48:38.139Z,1019.36
2023-04-07T10:49:38.349Z,1019.31
2023-04-07T10:50:38.620Z,1019.36
2023-04-07T10:51:38.783Z,1019.35
2023-04-07T10:52:38.991Z,1019.33
2023-04-07T10:53:39.217Z,1019.34
2023-04-07T10:54:39.415Z,1019.29
2023-04-07T10:55:39.660Z,1019.40
2023-04-07T10:56:39.820Z,1019.43
2023-04-07T10:57:40.032Z,1019.33
2023-04-07T10:58:40.253Z,1019.39
2023-04-07T10:59:40.483Z,1019.34
2023-04-07T11:00:40.678Z,1019.38
2023-04-07T11:01:40.936Z,1019.37
2023-04-07T11:02:41.384Z,1019.32
2023-04-07T11:03:41.339Z,1019.36
2023-04-07T11:04:41.492Z,1019.35
2023-04-07T11:05:41.670Z,1019.33
2023-04-07T11:06:41.847Z,1019.34
2023-04-07T11:07:42.066Z,1019.34
2023-04-07T11:08:42.271Z,1019.32
2023-04-07T11:09:42.492Z,1019.38
2023-04-07T11:10:42.708Z,1019.34
2023-04-07T11:11:42.901Z,1019.38
2023-04-07T11:12:43.069Z,1019.40
2023-04-07T11:13:43.282Z,1019.36
2023-04-07T11:14:43.494Z,1019.37
2023-04-07T11:15:43.740Z,1019.31
2023-04-07T11:16:43.872Z,1019.36
2023-04-07T11:17:44.146Z,1019.39
2023-04-07T11:18:44.264Z,1019.35
2023-04-07T11:19:44.445Z,1019.33
2023-04-07T11:20:46.084Z,1019.32
2023-04-07T11:21:44.849Z,1019.26
2023-04-07T11:22:45.041Z,1019.37
2023-04-07T11:23:45.253Z,1019.35
2023-04-07T11:24:45.464Z,1019.29
2023-04-07T11:25:45.653Z,1019.30
2023-04-07T11:26:45.856Z,1019.32
2023-04-07T11:27:46.057Z,1019.36
2023-04-07T11:28:46.254Z,1019.37
2023-04-07T11:29:46.467Z,1019.32
2023-04-07T11:30:46.683Z,1019.36
2023-04-07T11:31:46.954Z,1019.36
2023-04-07T11:32:47.092Z,1019.37
2023-04-07T11:33:47.459Z,1019.42
2023-04-07T11:34:47.463Z,1019.34
2023-04-07T11:35:47.698Z,1019.41
2023-04-07T11:36:47.876Z,1019.38
2023-04-07T11:37:48.066Z,1019.33
2023-04-07T11:38:48.267Z,1019.26
2023-04-07T11:39:48.479Z,1019.32
2023-04-07T11:40:48.729Z,1019.29
2023-04-07T11:41:48.892Z,1019.36
2023-04-07T11:42:49.118Z,1019.31
2023-04-07T11:43:49.532Z,1019.30
2023-04-07T11:44:49.524Z,1019.32
2023-04-07T11:45:49.710Z,1019.41
2023-04-07T11:46:49.922Z,1019.35
2023-04-07T11:47:50.083Z,1019.40
2023-04-07T11:48:50.270Z,1019.39
2023-04-07T11:49:50.494Z,1019.40
2023-04-07T11:50:50.720Z,1019.36
2023-04-07T11:51:50.893Z,1019.33
2023-04-07T11:52:51.109Z,1019.34
2023-04-07T11:53:51.317Z,1019.35
2023-04-07T11:54:51.535Z,1019.41
2023-04-07T11:55:51.762Z,1019.36
2023-04-07T11:56:51.932Z,1019.37
2023-04-07T11:57:52.237Z,1019.33
2023-04-07T11:58:52.354Z,1019.36
2023-04-07T11:59:52.552Z,1019.38
2023-04-07T12:00:52.773Z,1019.38
2023-04-07T12:01:55.339Z,1019.32
2023-04-07T12:02:53.476Z,1019.35
2023-04-07T12:03:53.825Z,1019.38
2023-04-07T12:04:53.615Z,1019.41
2023-04-07T12:05:53.769Z,1019.42
2023-04-07T12:06:53.981Z,1019.43
2023-04-07T12:07:54.186Z,1019.46
2023-04-07T12:08:54.408Z,1019.47